createdAt,value
2022-11-18T00:00:51.122Z,98797.50
2022-11-18T00:03:17.497Z,98883.84
2022-11-18T00:05:44.117Z,98898.72
2022-11-18T00:08:10.429Z,98919.88
2022-11-18T00:10:38.823Z,98907.19
2022-11-18T00:13:23.893Z,98926.19
2022-11-18T00:15:50.356Z,98899.88
2022-11-18T00:18:16.737Z,98896.34
2022-11-18T00:20:43.083Z,98899.56
2022-11-18T00:23:09.492Z,98792.53
2022-11-18T00:25:35.841Z,98894.81
2022-11-18T00:28:02.225Z,98885.84
2022-11-18T00:30:28.592Z,98894.63
2022-11-18T00:32:55.882Z,98913.94
2022-11-18T00:35:22.240Z,98865.91
2022-11-18T00:37:48.565Z,98903.66
2022-11-18T00:40:14.977Z,98803.75
2022-11-18T00:42:53.723Z,98842.19
2022-11-18T00:45:21.849Z,98869.44
2022-11-18T00:47:48.304Z,98857.28
2022-11-18T00:50:15.408Z,98945.56
2022-11-18T00:52:41.920Z,98921.72
2022-11-18T00:55:08.738Z,98923.13
2022-11-18T00:57:35.093Z,98921.38
2022-11-18T01:00:01.470Z,98813.94
2022-11-18T01:02:27.833Z,98951.97
2022-11-18T01:04:54.199Z,98914.06
2022-11-18T01:09:17.873Z,98932.69
2022-11-18T01:12:03.155Z,98945.00
2022-11-18T01:14:29.615Z,98914.88
2022-11-18T01:16:56.846Z,98929.97
2022-11-18T01:19:24.006Z,98925.03
2022-11-18T01:21:50.994Z,98952.75
2022-11-18T01:24:17.457Z,98970.59
2022-11-18T01:26:43.844Z,98954.09
2022-11-18T01:29:10.370Z,98881.50
2022-11-18T01:31:45.684Z,98948.22
2022-11-18T01:34:23.877Z,98969.81
2022-11-18T01:36:52.686Z,98989.31
2022-11-18T01:39:19.276Z,98990.59
2022-11-18T01:41:45.816Z,98944.50
2022-11-18T01:44:49.732Z,99004.78
2022-11-18T01:47:16.539Z,98994.00
2022-11-18T01:49:42.923Z,98970.75
2022-11-18T01:52:09.583Z,98992.16
2022-11-18T01:54:40.604Z,98846.59
2022-11-18T01:57:13.119Z,98979.94
2022-11-18T01:59:42.175Z,98999.69
2022-11-18T02:02:11.957Z,98980.44
2022-11-18T02:04:47.213Z,98995.22
2022-11-18T02:07:14.688Z,99012.78
2022-11-18T02:09:42.059Z,98965.28
2022-11-18T02:12:08.902Z,98911.19
2022-11-18T02:14:41.250Z,99019.03
2022-11-18T02:17:31.185Z,99015.41
2022-11-18T02:20:09.764Z,99020.03
2022-11-18T02:23:11.433Z,99015.72
2022-11-18T02:25:56.650Z,99026.44
2022-11-18T02:28:45.550Z,99017.91
2022-11-18T02:31:20.727Z,99033.16
2022-11-18T02:33:55.643Z,99038.91
2022-11-18T02:36:37.247Z,99002.50
2022-11-18T02:39:10.582Z,99029.44
2022-11-18T02:41:41.182Z,98980.94
2022-11-18T02:44:13.559Z,99021.50
2022-11-18T02:46:42.640Z,99026.38
2022-11-18T02:49:28.857Z,99026.06
2022-11-18T02:51:57.239Z,99045.75
2022-11-18T02:54:28.319Z,98965.72
2022-11-18T02:56:55.487Z,99026.13
2022-11-18T02:59:21.904Z,99042.56
2022-11-18T03:01:48.491Z,99054.69
2022-11-18T03:04:17.293Z,99047.44
2022-11-18T03:07:02.217Z,98934.25
2022-11-18T03:09:34.727Z,99014.81
2022-11-18T03:12:11.007Z,99017.59
2022-11-18T03:14:43.655Z,99068.94
2022-11-18T03:17:19.962Z,99060.41
2022-11-18T03:20:03.524Z,99069.78
2022-11-18T03:22:40.364Z,99058.25
2022-11-18T03:25:44.748Z,99080.59
2022-11-18T03:28:38.527Z,99080.13
2022-11-18T03:31:09.984Z,99077.50
2022-11-18T03:33:43.649Z,98989.63
2022-11-18T03:36:12.770Z,99058.09
2022-11-18T03:38:44.908Z,99093.81
2022-11-18T03:41:14.355Z,99063.00
2022-11-18T03:43:47.520Z,99036.59
2022-11-18T03:46:23.040Z,98959.06
2022-11-18T03:48:56.406Z,98889.50
2022-11-18T03:51:30.041Z,99015.84
2022-11-18T03:54:01.317Z,99095.78
2022-11-18T03:56:33.637Z,99088.56
2022-11-18T03:59:07.475Z,99129.13
2022-11-18T04:01:48.208Z,99093.47
2022-11-18T04:04:15.163Z,99112.03
2022-11-18T04:06:41.616Z,99127.28
2022-11-18T04:09:23.837Z,99090.59
2022-11-18T04:12:04.657Z,99033.25
2022-11-18T04:14:34.331Z,99119.41
2022-11-18T04:17:05.742Z,99042.94
2022-11-18T04:19:32.046Z,99110.00
2022-11-18T04:21:58.405Z,99142.91
2022-11-18T04:24:24.760Z,99140.94
2022-11-18T04:26:51.066Z,99108.47
2022-11-18T04:29:17.702Z,99139.44
2022-11-18T04:31:44.277Z,99114.13
2022-11-18T04:34:10.767Z,99044.91
2022-11-18T04:36:37.179Z,99085.59
2022-11-18T04:39:03.661Z,99175.19
2022-11-18T04:41:48.646Z,99033.03
2022-11-18T04:44:15.094Z,99151.44
2022-11-18T04:46:42.778Z,99036.28
2022-11-18T04:49:11.002Z,99041.66
2022-11-18T04:51:37.497Z,99072.16
2022-11-18T04:54:04.255Z,99173.94
2022-11-18T04:56:31.118Z,99190.91
2022-11-18T04:59:01.630Z,99153.59
2022-11-18T05:01:29.569Z,99192.50
2022-11-18T05:03:56.644Z,99196.13
2022-11-18T05:06:23.799Z,99103.91
2022-11-18T05:08:50.305Z,99203.06
2022-11-18T05:11:35.426Z,99090.25
2022-11-18T05:14:02.253Z,99172.63
2022-11-18T05:16:28.661Z,99204.78
2022-11-18T05:18:55.098Z,99157.28
2022-11-18T05:21:21.601Z,99177.03
2022-11-18T05:23:48.016Z,99128.84
2022-11-18T05:26:14.380Z,99180.06
2022-11-18T05:28:40.828Z,99183.19
2022-11-18T05:31:13.306Z,99208.13
2022-11-18T05:33:40.705Z,99225.03
2022-11-18T05:36:18.442Z,99225.63
2022-11-18T05:38:45.006Z,99198.53
2022-11-18T05:41:31.484Z,99219.53
2022-11-18T05:43:58.561Z,99221.97
2022-11-18T05:46:25.552Z,99181.63
2022-11-18T05:48:51.897Z,99236.78
2022-11-18T05:51:18.337Z,99228.91
2022-11-18T05:53:45.828Z,99223.66
2022-11-18T05:56:39.569Z,99248.91
2022-11-18T05:59:06.644Z,99226.91
2022-11-18T06:01:43.849Z,99247.13
2022-11-18T06:04:39.021Z,99248.47
2022-11-18T06:07:10.482Z,99248.00
2022-11-18T06:09:39.913Z,99215.94
2022-11-18T06:12:07.451Z,99240.72
2022-11-18T06:14:46.893Z,99209.50
2022-11-18T06:17:25.329Z,99240.72
2022-11-18T06:19:52.398Z,99246.97
2022-11-18T06:22:18.920Z,99245.00
2022-11-18T06:24:45.439Z,99279.69
2022-11-18T06:27:14.265Z,99250.72
2022-11-18T06:29:40.697Z,99268.34
2022-11-18T06:32:07.064Z,99273.28
2022-11-18T06:34:38.173Z,99243.66
2022-11-18T06:37:15.186Z,99243.06
2022-11-18T06:39:41.532Z,99161.00
2022-11-18T06:42:07.945Z,99301.31
2022-11-18T06:44:34.457Z,99279.44
2022-11-18T06:47:02.468Z,99315.03
2022-11-18T06:49:28.860Z,99288.94
2022-11-18T06:51:55.318Z,99322.38
2022-11-18T06:54:22.207Z,99324.22
2022-11-18T06:56:48.556Z,99312.88
2022-11-18T06:59:15.359Z,99316.53
2022-11-18T07:01:42.247Z,99316.16
2022-11-18T07:04:08.933Z,99306.06
2022-11-18T07:06:36.760Z,99334.13
2022-11-18T07:09:06.060Z,99343.09
2022-11-18T07:11:33.031Z,99347.81
2022-11-18T07:14:00.200Z,99348.81
2022-11-18T07:16:27.443Z,99252.84
2022-11-18T07:18:54.817Z,99353.31
2022-11-18T07:21:24.625Z,99352.13
2022-11-18T07:23:51.649Z,99336.84
2022-11-18T07:26:18.445Z,99371.03
2022-11-18T07:28:45.264Z,99266.41
2022-11-18T07:31:13.791Z,99363.31
2022-11-18T07:33:41.646Z,99316.81
2022-11-18T07:36:33.960Z,99376.59
2022-11-18T07:39:03.318Z,99300.59
2022-11-18T07:41:30.604Z,99355.66
2022-11-18T07:44:00.813Z,99392.44
2022-11-18T07:46:30.177Z,99273.09
2022-11-18T07:48:58.143Z,99274.59
2022-11-18T07:51:27.318Z,99402.34
2022-11-18T07:53:53.977Z,99398.25
2022-11-18T07:56:21.615Z,99408.13
2022-11-18T07:58:51.860Z,99399.94
2022-11-18T08:01:20.855Z,99415.69
2022-11-18T08:03:48.075Z,99387.94
2022-11-18T08:06:16.246Z,99326.34
2022-11-18T08:08:43.362Z,99429.38
2022-11-18T08:11:16.193Z,99370.81
2022-11-18T08:13:45.301Z,99408.13
2022-11-18T08:16:14.850Z,99355.19
2022-11-18T08:18:41.339Z,99339.28
2022-11-18T08:21:07.771Z,99444.28
2022-11-18T08:23:38.857Z,99407.69
2022-11-18T08:26:16.565Z,99431.31
2022-11-18T08:28:43.920Z,99393.03
2022-11-18T08:31:21.210Z,99442.25
2022-11-18T08:33:47.876Z,99414.31
2022-11-18T08:36:20.811Z,99380.31
2022-11-18T08:38:47.784Z,99365.69
2022-11-18T08:41:17.820Z,99366.69
2022-11-18T08:43:44.622Z,99448.13
2022-11-18T08:46:11.081Z,99437.88
2022-11-18T08:48:37.553Z,99359.38
2022-11-18T08:51:04.676Z,99454.81
2022-11-18T08:53:31.356Z,99387.13
2022-11-18T08:55:58.846Z,99435.09
2022-11-18T08:58:26.169Z,99352.66
2022-11-18T09:00:52.948Z,99364.63
2022-11-18T09:03:20.116Z,99467.66
2022-11-18T09:05:46.656Z,99473.53
2022-11-18T09:08:13.463Z,99458.22
2022-11-18T09:10:39.795Z,99451.63
2022-11-18T09:13:25.307Z,99306.91
2022-11-18T09:15:52.400Z,99351.06
2022-11-18T09:18:18.785Z,99440.81
2022-11-18T09:20:54.542Z,99475.25
2022-11-18T09:23:21.217Z,99391.09
2022-11-18T09:25:47.933Z,99444.06
2022-11-18T09:28:14.271Z,99446.22
2022-11-18T09:30:42.979Z,99486.44
2022-11-18T09:33:09.462Z,99461.00
2022-11-18T09:35:35.913Z,99410.09
2022-11-18T09:38:02.266Z,99472.56
2022-11-18T09:40:28.692Z,99478.25
2022-11-18T09:43:10.236Z,99467.28
2022-11-18T09:45:47.137Z,99469.16
2022-11-18T09:48:19.277Z,99509.72
2022-11-18T09:50:50.437Z,99495.66
2022-11-18T09:53:21.748Z,99515.97
2022-11-18T09:55:50.316Z,99523.59
2022-11-18T09:58:35.820Z,99492.06
2022-11-18T10:01:03.782Z,99501.41
2022-11-18T10:03:32.850Z,99537.31
2022-11-18T10:06:29.398Z,99533.66
2022-11-18T10:09:02.874Z,99536.34
2022-11-18T10:11:41.462Z,99542.28
2022-11-18T10:14:37.268Z,99534.41
2022-11-18T10:17:19.781Z,99485.84
2022-11-18T10:19:54.889Z,99519.94
2022-11-18T10:22:30.785Z,99554.03
2022-11-18T10:25:00.592Z,99523.25
2022-11-18T10:27:37.580Z,99555.25
2022-11-18T10:30:31.623Z,99539.44
2022-11-18T10:33:03.982Z,99523.59
2022-11-18T10:35:36.255Z,99554.41
2022-11-18T10:38:14.872Z,99548.56
2022-11-18T10:40:57.237Z,99516.66
2022-11-18T10:43:43.551Z,99569.91
2022-11-18T10:46:25.988Z,99574.00
2022-11-18T10:49:10.709Z,99567.06
2022-11-18T10:51:37.836Z,99572.28
2022-11-18T10:54:14.187Z,99509.19
2022-11-18T10:56:56.373Z,99564.22
2022-11-18T10:59:46.530Z,99578.78
2022-11-18T11:02:31.136Z,99576.13
2022-11-18T11:05:01.267Z,99564.16
2022-11-18T11:07:33.780Z,99498.13
2022-11-18T11:10:12.601Z,99581.50
2022-11-18T11:12:48.782Z,99562.38
2022-11-18T11:15:41.223Z,99595.94
2022-11-18T11:18:35.844Z,99580.56
2022-11-18T11:21:02.215Z,99571.63
2022-11-18T11:23:32.152Z,99573.22
2022-11-18T11:29:13.900Z,99589.34
2022-11-18T11:32:18.049Z,99591.91
2022-11-18T11:35:02.111Z,99585.25
2022-11-18T11:37:47.308Z,99597.19
2022-11-18T11:40:23.601Z,99598.34
2022-11-18T11:43:00.009Z,99580.50
2022-11-18T11:45:52.569Z,99560.97
2022-11-18T11:48:33.790Z,99594.56
2022-11-18T11:51:33.535Z,99554.66
2022-11-18T11:54:31.165Z,99596.41
2022-11-18T11:57:40.798Z,99601.78
2022-11-18T12:00:14.714Z,99583.25
2022-11-18T12:03:12.237Z,99603.56
2022-11-18T12:05:42.902Z,99583.41
2022-11-18T12:08:22.584Z,99574.75
2022-11-18T12:11:07.309Z,99603.97
2022-11-18T12:13:40.426Z,99602.28
2022-11-18T12:16:29.834Z,99603.22
2022-11-18T12:19:07.655Z,99576.28
2022-11-18T12:21:46.254Z,99607.81
2022-11-18T12:24:18.404Z,99615.09
2022-11-18T12:26:50.423Z,99578.50
2022-11-18T12:29:19.664Z,99620.34
2022-11-18T12:31:54.815Z,99595.44
2022-11-18T12:34:40.819Z,99609.69
2022-11-18T12:37:25.269Z,99618.63
2022-11-18T12:40:00.579Z,99614.66
2022-11-18T12:43:20.164Z,99610.19
2022-11-18T12:45:48.665Z,99604.56
2022-11-18T12:48:27.579Z,99607.38
2022-11-18T12:50:59.792Z,99601.84
2022-11-18T12:53:43.783Z,99593.75
2022-11-18T12:56:19.614Z,99622.38
2022-11-18T12:58:57.398Z,99618.16
2022-11-18T13:01:35.123Z,99599.06
2022-11-18T13:04:16.184Z,99630.53
2022-11-18T13:06:43.885Z,99602.47
2022-11-18T13:09:36.942Z,99490.59
2022-11-18T13:12:17.717Z,99612.19
2022-11-18T13:15:04.148Z,99597.78
2022-11-18T13:17:58.395Z,99600.72
2022-11-18T13:20:31.039Z,99624.41
2022-11-18T13:23:29.380Z,99600.84
2022-11-18T13:26:06.805Z,99632.44
2022-11-18T13:28:45.276Z,99585.72
2022-11-18T13:31:31.829Z,99638.94
2022-11-18T13:34:15.204Z,99636.09
2022-11-18T13:36:45.941Z,99627.53
2022-11-18T13:39:24.947Z,99645.72
2022-11-18T13:42:07.418Z,99647.72
2022-11-18T13:44:36.243Z,99640.63
2022-11-18T13:47:31.194Z,99649.53
2022-11-18T13:50:18.180Z,99587.13
2022-11-18T13:52:56.440Z,99631.63
2022-11-18T13:55:26.919Z,99528.97
2022-11-18T13:58:03.210Z,99634.56
2022-11-18T14:00:34.310Z,99484.00
2022-11-18T14:03:05.805Z,99646.78
2022-11-18T14:05:32.767Z,99644.16
2022-11-18T14:08:04.644Z,99651.44
2022-11-18T14:10:38.182Z,99654.84
2022-11-18T14:13:18.135Z,99646.66
2022-11-18T14:15:45.277Z,99576.94
2022-11-18T14:18:20.160Z,99455.53
2022-11-18T14:20:52.459Z,99461.63
2022-11-18T14:23:24.656Z,99582.25
2022-11-18T14:25:51.091Z,99574.50
2022-11-18T14:28:27.824Z,99660.03
2022-11-18T14:31:03.701Z,99640.16
2022-11-18T14:33:39.467Z,99653.47
2022-11-18T14:36:15.505Z,99645.91
2022-11-18T14:41:49.031Z,99673.03
2022-11-18T14:44:17.216Z,99584.94
2022-11-18T14:46:46.351Z,99628.25
2022-11-18T14:49:18.724Z,99663.84
2022-11-18T14:51:46.151Z,99672.66
2022-11-18T14:54:23.781Z,99655.47
2022-11-18T14:56:54.373Z,99559.88
2022-11-18T14:59:21.114Z,99646.03
2022-11-18T15:01:50.208Z,99548.41
2022-11-18T15:04:17.844Z,99560.66
2022-11-18T15:06:47.789Z,99599.44
2022-11-18T15:09:14.165Z,99529.59
2022-11-18T15:11:41.281Z,99553.25
2022-11-18T15:14:07.732Z,99678.66
2022-11-18T15:16:35.108Z,99673.03
2022-11-18T15:19:03.629Z,99671.00
2022-11-18T15:21:30.788Z,99688.88
2022-11-18T15:23:57.147Z,99659.56
2022-11-18T15:26:28.198Z,99697.38
2022-11-18T15:28:55.767Z,99661.75
2022-11-18T15:31:23.131Z,99666.50
2022-11-18T15:33:51.096Z,99581.59
2022-11-18T15:36:25.501Z,99692.19
2022-11-18T15:38:53.765Z,99663.06
2022-11-18T15:41:26.087Z,99539.03
2022-11-18T15:43:53.942Z,99646.72
2022-11-18T15:46:23.483Z,99686.03
2022-11-18T15:48:57.119Z,99619.34
2022-11-18T15:51:35.965Z,99624.97
2022-11-18T15:54:02.422Z,99599.16
2022-11-18T15:56:30.507Z,99701.63
2022-11-18T15:58:59.056Z,99623.13
2022-11-18T16:01:27.452Z,99651.84
2022-11-18T16:03:57.959Z,99599.03
2022-11-18T16:06:25.085Z,99624.69
2022-11-18T16:08:57.576Z,99699.78
2022-11-18T16:11:42.881Z,99716.28
2022-11-18T16:14:11.508Z,99667.56
2022-11-18T16:16:40.001Z,99728.97
2022-11-18T16:19:08.580Z,99625.16
2022-11-18T16:21:38.194Z,99727.19
2022-11-18T16:24:06.451Z,99730.75
2022-11-18T16:26:33.938Z,99708.00
2022-11-18T16:29:01.026Z,99706.56
2022-11-18T16:31:43.770Z,99718.69
2022-11-18T16:34:16.199Z,99737.94
2022-11-18T16:36:48.285Z,99739.78
2022-11-18T16:39:17.192Z,99715.19
2022-11-18T16:41:44.859Z,99740.66
2022-11-18T16:44:14.086Z,99738.34
2022-11-18T16:46:49.305Z,99763.47
2022-11-18T16:49:17.849Z,99788.59
2022-11-18T16:51:47.044Z,99789.41
2022-11-18T16:54:17.928Z,99687.72
2022-11-18T16:56:45.322Z,99684.00
2022-11-18T16:59:14.919Z,99747.91
2022-11-18T17:01:41.777Z,99794.50
2022-11-18T17:04:08.897Z,99762.81
2022-11-18T17:06:35.635Z,99691.50
2022-11-18T17:09:02.092Z,99773.75
2022-11-18T17:11:28.542Z,99703.66
2022-11-18T17:13:58.029Z,99686.81
2022-11-18T17:16:26.158Z,99788.50
2022-11-18T17:18:57.214Z,99630.66
2022-11-18T17:21:24.502Z,99791.28
2022-11-18T17:23:51.360Z,99769.88
2022-11-18T17:26:20.507Z,99774.44
2022-11-18T17:28:47.517Z,99788.75
2022-11-18T17:31:16.430Z,99650.91
2022-11-18T17:33:43.702Z,99785.34
2022-11-18T17:36:17.549Z,99766.34
2022-11-18T17:38:46.785Z,99779.75
2022-11-18T17:41:33.962Z,99765.34
2022-11-18T17:44:01.805Z,99778.16
2022-11-18T17:46:33.377Z,99797.06
2022-11-18T17:49:05.424Z,99686.81
2022-11-18T17:51:32.214Z,99667.59
2022-11-18T17:53:58.729Z,99668.34
2022-11-18T17:56:25.358Z,99814.38
2022-11-18T17:58:54.266Z,99806.06
2022-11-18T18:01:22.089Z,99776.94
2022-11-18T18:03:49.067Z,99771.19
2022-11-18T18:06:16.610Z,99666.41
2022-11-18T18:08:43.420Z,99766.81
2022-11-18T18:11:16.211Z,99816.78
2022-11-18T18:14:01.653Z,99813.94
2022-11-18T18:16:30.146Z,99772.25
2022-11-18T18:18:58.676Z,99822.44
2022-11-18T18:21:25.720Z,99781.34
2022-11-18T18:23:52.497Z,99813.09
2022-11-18T18:26:19.103Z,99815.47
2022-11-18T18:28:45.665Z,99794.28
2022-11-18T18:31:15.390Z,99727.47
2022-11-18T18:33:44.833Z,99707.63
2022-11-18T18:36:15.272Z,99775.78
2022-11-18T18:38:42.974Z,99738.59
2022-11-18T18:41:21.164Z,99819.38
2022-11-18T18:43:48.802Z,99821.94
2022-11-18T18:46:30.230Z,99822.81
2022-11-18T18:48:58.455Z,99820.59
2022-11-18T18:51:26.613Z,99832.66
2022-11-18T18:53:54.736Z,99822.25
2022-11-18T18:56:21.178Z,99801.81
2022-11-18T18:58:48.730Z,99732.31
2022-11-18T19:01:17.063Z,99833.41
2022-11-18T19:03:44.350Z,99810.38
2022-11-18T19:09:19.051Z,99814.00
2022-11-18T19:12:04.169Z,99830.16
2022-11-18T19:14:32.468Z,99797.81
2022-11-18T19:16:58.817Z,99811.50
2022-11-18T19:19:46.533Z,99782.50
2022-11-18T19:22:14.686Z,99839.88
2022-11-18T19:24:49.612Z,99792.06
2022-11-18T19:27:17.871Z,99797.28
2022-11-18T19:29:44.504Z,99744.16
2022-11-18T19:32:11.028Z,99826.09
2022-11-18T19:34:37.351Z,99814.25
2022-11-18T19:37:03.727Z,99791.78
2022-11-18T19:39:30.162Z,99791.78
2022-11-18T19:41:56.667Z,99811.09
2022-11-18T19:44:23.061Z,99740.41
2022-11-18T19:46:50.028Z,99792.75
2022-11-18T19:49:17.006Z,99837.28
2022-11-18T19:51:43.543Z,99853.22
2022-11-18T19:54:09.945Z,99849.44
2022-11-18T19:56:36.397Z,99855.31
2022-11-18T19:59:02.795Z,99842.50
2022-11-18T20:01:33.842Z,99832.13
2022-11-18T20:04:05.459Z,99858.25
2022-11-18T20:06:33.721Z,99757.66
2022-11-18T20:09:00.116Z,99689.16
2022-11-18T20:11:26.516Z,99850.69
2022-11-18T20:13:52.870Z,99821.31
2022-11-18T20:16:22.538Z,99855.81
2022-11-18T20:18:53.728Z,99779.94
2022-11-18T20:21:20.932Z,99850.69
2022-11-18T20:23:49.023Z,99868.00
2022-11-18T20:26:17.595Z,99723.72
2022-11-18T20:28:45.584Z,99846.53
2022-11-18T20:31:15.545Z,99846.53
2022-11-18T20:33:44.439Z,99858.44
2022-11-18T20:36:15.553Z,99864.41
2022-11-18T20:38:42.248Z,99826.06
2022-11-18T20:41:10.776Z,99879.09
2022-11-18T20:43:38.771Z,99872.22
2022-11-18T20:46:07.492Z,99764.09
2022-11-18T20:48:34.889Z,99761.31
2022-11-18T20:51:10.370Z,99741.03
2022-11-18T20:53:38.971Z,99870.19
2022-11-18T20:56:06.492Z,99875.50
2022-11-18T20:58:36.101Z,99758.53
2022-11-18T21:01:26.268Z,99770.28
2022-11-18T21:04:01.041Z,99880.56
2022-11-18T21:06:29.816Z,99872.34
2022-11-18T21:08:58.014Z,99877.34
2022-11-18T21:11:25.524Z,99856.84
2022-11-18T21:14:10.559Z,99765.88
2022-11-18T21:16:37.382Z,99866.72
2022-11-18T21:19:04.710Z,99742.53
2022-11-18T21:21:48.584Z,99863.53
2022-11-18T21:24:19.048Z,99666.81
2022-11-18T21:26:46.703Z,99823.34
2022-11-18T21:29:14.723Z,99657.47
2022-11-18T21:31:42.300Z,99752.00
2022-11-18T21:34:09.512Z,99823.81
2022-11-18T21:36:40.090Z,99801.22
2022-11-18T21:39:14.222Z,99811.03
2022-11-18T21:41:40.726Z,99677.38
2022-11-18T21:44:15.052Z,99675.19
2022-11-18T21:46:41.971Z,99898.09
2022-11-18T21:49:09.236Z,99734.81
2022-11-18T21:51:36.228Z,99685.31
2022-11-18T21:54:03.253Z,99794.97
2022-11-18T21:56:32.782Z,99891.41
2022-11-18T21:59:01.056Z,99834.06
2022-11-18T22:01:29.757Z,99826.03
2022-11-18T22:04:01.768Z,99810.03
2022-11-18T22:06:30.006Z,99805.25
2022-11-18T22:08:56.615Z,99782.72
2022-11-18T22:11:24.009Z,99734.69
2022-11-18T22:13:51.920Z,99915.56
2022-11-18T22:16:20.395Z,99906.25
2022-11-18T22:18:53.052Z,99926.34
2022-11-18T22:21:26.227Z,99835.22
2022-11-18T22:23:53.165Z,99697.91
2022-11-18T22:26:21.415Z,99764.91
2022-11-18T22:28:52.972Z,99833.22
2022-11-18T22:31:22.616Z,99900.50
2022-11-18T22:33:53.480Z,99913.34
2022-11-18T22:36:25.228Z,99828.75
2022-11-18T22:38:51.723Z,99812.16
2022-11-18T22:41:45.018Z,99759.09
2022-11-18T22:44:12.661Z,99911.75
2022-11-18T22:46:40.157Z,99865.00
2022-11-18T22:49:07.763Z,99699.81
2022-11-18T22:51:35.480Z,99929.47
2022-11-18T22:54:36.518Z,99797.03
2022-11-18T22:56:48.313Z,99894.31
2022-11-18T22:59:14.723Z,99917.34
2022-11-18T23:01:41.387Z,99929.25
2022-11-18T23:04:08.028Z,99784.09
2022-11-18T23:06:34.592Z,99834.72
2022-11-18T23:09:00.977Z,99853.66
2022-11-18T23:11:59.688Z,99758.94
2022-11-18T23:14:26.111Z,99879.91
2022-11-18T23:16:52.772Z,99930.44
2022-11-18T23:19:19.506Z,99926.03
2022-11-18T23:21:46.604Z,99957.16
2022-11-18T23:24:14.979Z,99839.31
2022-11-18T23:26:44.888Z,99796.91
2022-11-18T23:29:12.708Z,99868.69
2022-11-18T23:31:42.714Z,99875.34
2022-11-18T23:34:13.266Z,99720.13
2022-11-18T23:36:40.318Z,99790.19
2022-11-18T23:39:07.233Z,99964.28
2022-11-18T23:41:34.162Z,99931.16
2022-11-18T23:44:03.789Z,99831.84
2022-11-18T23:46:30.311Z,99829.34
2022-11-18T23:48:56.714Z,99771.38
2022-11-18T23:51:24.952Z,99863.66
2022-11-18T23:53:56.643Z,99956.19
2022-11-18T23:56:25.820Z,99755.03
2022-11-18T23:58:57.872Z,99761.16
